createdAt,value
2018-11-26T00:00:09.638Z,90.00
2018-11-26T00:03:06.459Z,82.25
2018-11-26T00:06:03.245Z,83.90
2018-11-26T00:09:09.723Z,85.03
2018-11-26T00:12:08.149Z,79.77
2018-11-26T00:15:04.617Z,80.35
2018-11-26T00:18:01.196Z,79.82
2018-11-26T00:20:57.651Z,74.53
2018-11-26T00:23:54.237Z,75.83
2018-11-26T00:26:50.436Z,75.70
2018-11-26T00:29:46.718Z,78.55
2018-11-26T00:32:42.960Z,79.53
2018-11-26T00:35:39.553Z,76.10
2018-11-26T00:38:35.647Z,76.33
2018-11-26T00:41:32.088Z,79.77
2018-11-26T00:44:28.335Z,78.62
2018-11-26T00:47:24.617Z,79.47
2018-11-26T00:50:20.547Z,79.27
2018-11-26T00:53:17.014Z,86.25
2018-11-26T00:56:13.358Z,83.97
2018-11-26T00:59:09.740Z,82.35
2018-11-26T01:02:06.382Z,83.97
2018-11-26T01:05:05.547Z,77.75
2018-11-26T01:08:03.155Z,79.97
2018-11-26T01:10:59.761Z,76.62
2018-11-26T01:13:56.270Z,79.42
2018-11-26T01:16:52.776Z,88.62
2018-11-26T01:19:49.875Z,85.92
2018-11-26T01:22:48.910Z,85.15
2018-11-26T01:25:45.125Z,91.53
2018-11-26T01:28:41.365Z,90.97
2018-11-26T01:31:37.788Z,91.57
2018-11-26T01:34:34.415Z,95.20
2018-11-26T01:37:30.783Z,96.95
2018-11-26T01:40:49.945Z,107.15
2018-11-26T01:43:46.357Z,112.60
2018-11-26T01:46:43.014Z,111.55
2018-11-26T01:49:40.058Z,117.62
2018-11-26T01:52:39.615Z,121.82
2018-11-26T01:55:36.017Z,122.07
2018-11-26T01:58:32.827Z,116.28
2018-11-26T02:01:29.520Z,114.15
2018-11-26T02:04:25.847Z,113.12
2018-11-26T02:07:22.682Z,117.75
2018-11-26T02:10:22.745Z,115.52
2018-11-26T02:13:19.645Z,111.75
2018-11-26T02:16:17.362Z,110.15
2018-11-26T02:19:13.669Z,115.45
2018-11-26T02:22:10.749Z,117.00
2018-11-26T02:25:10.554Z,118.95
2018-11-26T02:28:07.437Z,120.62
2018-11-26T02:31:16.866Z,121.70
2018-11-26T02:34:11.421Z,128.55
2018-11-26T02:37:12.848Z,121.50
2018-11-26T02:40:23.410Z,120.90
2018-11-26T02:43:27.297Z,123.82
2018-11-26T02:46:32.548Z,120.42
2018-11-26T02:49:38.259Z,115.20
2018-11-26T02:52:42.896Z,116.37
2018-11-26T02:55:48.675Z,111.90
2018-11-26T02:58:54.885Z,119.08
2018-11-26T03:02:00.181Z,118.55
2018-11-26T03:05:05.348Z,118.02
2018-11-26T03:08:06.212Z,116.50
2018-11-26T03:11:14.315Z,126.00
2018-11-26T03:14:20.344Z,129.72
2018-11-26T03:17:26.557Z,119.90
2018-11-26T03:20:31.678Z,122.50
2018-11-26T03:23:34.416Z,125.45
2018-11-26T03:26:40.251Z,129.00
2018-11-26T03:29:36.650Z,125.22
2018-11-26T03:32:33.028Z,124.40
2018-11-26T03:35:29.597Z,122.10
2018-11-26T03:39:00.340Z,129.10
2018-11-26T03:41:56.620Z,126.30
2018-11-26T03:44:53.887Z,127.55
2018-11-26T03:47:50.419Z,130.75
2018-11-26T03:50:55.389Z,130.32
2018-11-26T03:53:51.928Z,130.18
2018-11-26T03:56:57.980Z,131.52
2018-11-26T03:59:54.673Z,132.45
2018-11-26T04:02:51.405Z,117.10
2018-11-26T04:05:47.878Z,109.65
2018-11-26T04:08:43.699Z,101.53
2018-11-26T04:11:48.519Z,105.32
2018-11-26T04:14:45.233Z,111.40
2018-11-26T04:17:41.999Z,115.12
2018-11-26T04:20:38.577Z,111.25
2018-11-26T04:23:37.580Z,113.28
2018-11-26T04:26:40.914Z,110.78
2018-11-26T04:32:41.543Z,96.90
2018-11-26T04:35:38.446Z,90.72
2018-11-26T04:38:39.265Z,73.62
2018-11-26T04:41:43.639Z,65.67
2018-11-26T04:44:48.616Z,57.15
2018-11-26T04:47:45.741Z,54.20
2018-11-26T04:50:57.944Z,51.55
2018-11-26T04:53:59.690Z,49.70
2018-11-26T04:57:06.353Z,47.55
2018-11-26T05:00:03.495Z,46.77
2018-11-26T05:03:00.257Z,41.20
2018-11-26T05:05:56.476Z,40.48
2018-11-26T05:19:32.844Z,39.18
2018-11-26T05:22:41.138Z,41.88
2018-11-26T05:25:59.857Z,41.35
2018-11-26T05:29:00.434Z,42.27
2018-11-26T05:31:58.118Z,46.65
2018-11-26T05:35:19.788Z,45.50
2018-11-26T05:38:18.326Z,46.70
2018-11-26T05:41:19.838Z,44.55
2018-11-26T05:44:41.328Z,40.80
2018-11-26T05:47:46.249Z,37.53
2018-11-26T05:50:35.501Z,37.95
2018-11-26T05:53:41.812Z,34.78
2018-11-26T05:57:05.818Z,35.17
2018-11-26T06:00:10.994Z,41.05
2018-11-26T06:03:09.455Z,40.52
2018-11-26T06:06:12.045Z,34.70
2018-11-26T06:09:12.583Z,32.78
2018-11-26T06:12:12.184Z,33.55
2018-11-26T06:15:12.521Z,28.60
2018-11-26T06:18:13.916Z,27.30
2018-11-26T06:21:13.178Z,27.10
2018-11-26T06:24:15.476Z,29.60
2018-11-26T06:27:15.140Z,29.63
2018-11-26T06:30:14.371Z,35.78
2018-11-26T06:33:15.830Z,28.52
2018-11-26T06:36:25.979Z,27.45
2018-11-26T06:39:26.018Z,27.35
2018-11-26T06:42:24.813Z,28.65
2018-11-26T06:45:23.353Z,28.45
2018-11-26T06:48:34.550Z,30.37
2018-11-26T06:51:29.412Z,27.15
2018-11-26T06:54:33.165Z,29.87
2018-11-26T06:57:31.306Z,27.52
2018-11-26T07:00:30.525Z,28.52
2018-11-26T07:03:28.549Z,29.85
2018-11-26T07:06:27.027Z,28.73
2018-11-26T07:09:26.611Z,28.60
2018-11-26T07:12:30.086Z,29.27
2018-11-26T07:15:26.131Z,30.32
2018-11-26T07:18:25.064Z,27.77
2018-11-26T07:21:24.367Z,28.00
2018-11-26T07:24:24.239Z,28.20
2018-11-26T07:27:21.193Z,27.27
2018-11-26T07:30:25.331Z,28.38
2018-11-26T07:33:44.295Z,28.73
2018-11-26T07:40:44.535Z,30.15
2018-11-26T07:52:29.576Z,29.52
2018-11-26T07:55:29.910Z,29.77
2018-11-26T07:58:36.507Z,31.25
2018-11-26T08:02:16.774Z,31.52
2018-11-26T08:05:20.745Z,30.60
2018-11-26T08:08:19.550Z,29.45
2018-11-26T08:11:27.772Z,30.17
2018-11-26T08:14:30.528Z,28.75
2018-11-26T08:17:28.531Z,29.72
2018-11-26T08:20:28.220Z,28.10
2018-11-26T08:23:38.894Z,28.55
2018-11-26T08:26:41.524Z,28.17
2018-11-26T08:29:42.524Z,29.80
2018-11-26T08:32:43.711Z,27.98
2018-11-26T08:35:44.796Z,28.98
2018-11-26T08:39:15.071Z,28.40
2018-11-26T08:42:30.824Z,29.50
2018-11-26T08:45:40.557Z,29.90
2018-11-26T08:48:36.477Z,29.90
2018-11-26T08:51:32.815Z,30.08
2018-11-26T08:54:46.588Z,29.10
2018-11-26T08:57:46.464Z,30.00
2018-11-26T09:00:42.766Z,29.40
2018-11-26T09:05:04.124Z,30.40
2018-11-26T09:12:36.421Z,29.40
2018-11-26T09:23:08.985Z,30.75
2018-11-26T09:26:10.602Z,30.12
2018-11-26T09:29:10.639Z,31.37
2018-11-26T09:32:08.678Z,33.83
2018-11-26T09:35:07.505Z,30.57
2018-11-26T09:38:04.722Z,32.95
2018-11-26T09:41:06.238Z,31.80
2018-11-26T09:44:07.765Z,32.45
2018-11-26T09:47:13.079Z,31.45
2018-11-26T09:50:10.042Z,31.57
2018-11-26T09:53:07.733Z,32.93
2018-11-26T09:56:06.390Z,31.90
2018-11-26T09:59:04.618Z,33.20
2018-11-26T10:02:06.240Z,32.88
2018-11-26T10:05:03.939Z,36.88
2018-11-26T10:08:09.846Z,37.48
2018-11-26T10:11:16.556Z,35.68
2018-11-26T10:14:14.919Z,34.00
2018-11-26T10:17:31.876Z,35.48
2018-11-26T10:20:33.649Z,37.35
2018-11-26T10:23:31.602Z,35.20
2018-11-26T10:26:29.401Z,34.75
2018-11-26T10:29:29.738Z,32.45
2018-11-26T10:32:26.836Z,33.48
2018-11-26T10:35:25.629Z,35.10
2018-11-26T10:38:22.770Z,34.13
2018-11-26T10:42:12.190Z,33.50
2018-11-26T10:52:50.542Z,32.13
2018-11-26T10:55:49.043Z,31.82
2018-11-26T10:58:48.489Z,32.70
2018-11-26T11:01:51.762Z,32.50
2018-11-26T11:04:52.182Z,33.98
2018-11-26T11:07:52.505Z,32.05
2018-11-26T11:10:53.747Z,32.53
2018-11-26T11:13:56.898Z,34.05
2018-11-26T11:16:54.204Z,31.15
2018-11-26T11:20:19.613Z,32.95
2018-11-26T11:23:21.829Z,30.57
2018-11-26T11:26:19.337Z,33.28
2018-11-26T11:29:18.994Z,32.42
2018-11-26T11:32:16.192Z,33.28
2018-11-26T11:35:16.123Z,33.75
2018-11-26T11:38:13.941Z,35.20
2018-11-26T11:41:16.676Z,33.78
2018-11-26T11:44:13.960Z,33.98
2018-11-26T11:47:11.152Z,34.60
2018-11-26T11:50:09.085Z,34.85
2018-11-26T11:53:11.112Z,36.17
2018-11-26T11:56:08.880Z,36.15
2018-11-26T11:59:06.848Z,36.85
2018-11-26T12:02:04.333Z,36.88
2018-11-26T12:05:01.786Z,37.08
2018-11-26T12:08:02.170Z,37.10
2018-11-26T12:10:58.811Z,35.85
2018-11-26T12:13:55.729Z,37.93
2018-11-26T12:16:52.266Z,37.55
2018-11-26T12:19:51.885Z,38.35
2018-11-26T12:22:49.813Z,39.75
2018-11-26T12:25:49.735Z,40.63
2018-11-26T12:28:47.422Z,39.53
2018-11-26T12:31:44.528Z,40.15
2018-11-26T12:34:42.052Z,40.98
2018-11-26T12:37:44.111Z,41.10
2018-11-26T12:40:37.828Z,40.65
2018-11-26T12:43:34.095Z,42.78
2018-11-26T12:46:30.861Z,39.55
2018-11-26T12:49:28.311Z,40.05
2018-11-26T12:52:26.797Z,38.73
2018-11-26T12:55:25.055Z,40.33
2018-11-26T12:58:34.523Z,42.00
2018-11-26T13:01:32.178Z,47.48
2018-11-26T13:04:28.929Z,49.42
2018-11-26T13:07:25.333Z,50.63
2018-11-26T13:10:27.145Z,46.88
2018-11-26T13:13:23.584Z,42.95
2018-11-26T13:16:20.699Z,43.25
2018-11-26T13:19:16.581Z,43.33
2018-11-26T13:22:13.181Z,42.33
2018-11-26T13:25:10.161Z,41.77
2018-11-26T13:28:18.851Z,42.23
2018-11-26T13:31:15.462Z,41.75
2018-11-26T13:34:13.286Z,40.58
2018-11-26T13:37:10.080Z,41.05
2018-11-26T13:40:07.091Z,41.55
2018-11-26T13:43:05.251Z,44.10
2018-11-26T13:46:01.791Z,44.30
2018-11-26T13:48:59.045Z,44.93
2018-11-26T13:51:55.406Z,45.65
2018-11-26T13:54:52.065Z,46.33
2018-11-26T13:57:49.121Z,47.95
2018-11-26T14:00:45.983Z,49.03
2018-11-26T14:03:45.893Z,48.00
2018-11-26T14:06:39.344Z,48.33
2018-11-26T14:09:42.513Z,47.90
2018-11-26T14:12:45.091Z,45.92
2018-11-26T14:15:44.405Z,47.78
2018-11-26T14:18:40.881Z,47.78
2018-11-26T14:21:37.154Z,48.10
2018-11-26T14:24:34.314Z,49.40
2018-11-26T14:27:30.872Z,48.60
2018-11-26T14:30:31.535Z,48.63
2018-11-26T14:33:27.865Z,50.45
2018-11-26T14:36:24.428Z,53.38
2018-11-26T14:39:21.123Z,56.18
2018-11-26T14:42:19.583Z,56.53
2018-11-26T14:45:18.314Z,58.73
2018-11-26T14:48:15.845Z,58.63
2018-11-26T14:51:13.250Z,56.98
2018-11-26T14:54:11.293Z,54.48
2018-11-26T14:57:08.773Z,54.30
2018-11-26T15:00:06.825Z,53.20
2018-11-26T15:03:03.999Z,52.55
2018-11-26T15:06:01.701Z,93.03
2018-11-26T15:08:59.599Z,113.70
2018-11-26T15:11:56.989Z,76.15
2018-11-26T15:14:54.741Z,58.98
2018-11-26T15:17:52.304Z,57.85
2018-11-26T15:20:50.133Z,59.13
2018-11-26T15:23:48.390Z,65.95
2018-11-26T15:26:45.943Z,66.77
2018-11-26T15:29:43.345Z,67.78
2018-11-26T15:32:41.815Z,79.77
2018-11-26T15:35:40.337Z,73.92
2018-11-26T15:38:38.655Z,73.90
2018-11-26T15:41:36.447Z,73.70
2018-11-26T15:44:35.135Z,75.10
2018-11-26T15:47:32.931Z,74.77
2018-11-26T15:50:31.014Z,75.67
2018-11-26T15:53:28.714Z,69.82
2018-11-26T15:56:27.941Z,65.67
2018-11-26T15:59:25.621Z,67.87
2018-11-26T16:02:24.371Z,63.48
2018-11-26T16:05:41.414Z,62.65
2018-11-26T16:08:39.031Z,58.87
2018-11-26T16:11:36.815Z,57.53
2018-11-26T16:14:35.158Z,55.03
2018-11-26T16:17:33.311Z,55.20
2018-11-26T16:20:32.117Z,52.03
2018-11-26T16:23:35.686Z,52.00
2018-11-26T16:26:33.521Z,51.88
2018-11-26T16:29:32.531Z,50.60
2018-11-26T16:32:44.052Z,48.02
2018-11-26T16:35:46.174Z,48.40
2018-11-26T16:38:43.944Z,49.35
2018-11-26T16:41:41.598Z,48.10
2018-11-26T16:44:38.904Z,48.83
2018-11-26T16:47:37.053Z,49.03
2018-11-26T16:50:42.691Z,47.95
2018-11-26T16:53:40.495Z,46.60
2018-11-26T16:56:38.408Z,46.42
2018-11-26T16:59:36.430Z,47.23
2018-11-26T17:02:34.538Z,47.45
2018-11-26T17:05:42.624Z,49.35
2018-11-26T17:08:40.490Z,50.15
2018-11-26T17:11:38.354Z,50.45
2018-11-26T17:14:35.625Z,48.45
2018-11-26T17:17:33.314Z,48.92
2018-11-26T17:20:30.733Z,49.77
2018-11-26T17:23:30.879Z,49.60
2018-11-26T17:26:28.755Z,51.60
2018-11-26T17:29:26.383Z,56.23
2018-11-26T17:32:24.190Z,50.52
2018-11-26T17:35:23.292Z,55.08
2018-11-26T17:38:24.813Z,51.80
2018-11-26T17:41:21.672Z,54.13
2018-11-26T17:44:18.615Z,53.05
2018-11-26T17:47:15.625Z,53.98
2018-11-26T17:50:20.728Z,58.10
2018-11-26T17:53:21.479Z,59.05
2018-11-26T17:56:14.941Z,56.10
2018-11-26T17:59:14.107Z,55.03
2018-11-26T18:02:10.905Z,54.40
2018-11-26T18:05:08.041Z,55.10
2018-11-26T18:08:15.268Z,55.73
2018-11-26T18:11:12.570Z,56.10
2018-11-26T18:14:09.567Z,54.85
2018-11-26T18:17:05.623Z,53.58
2018-11-26T18:20:02.026Z,57.55
2018-11-26T18:22:59.371Z,54.27
2018-11-26T18:25:55.836Z,55.03
2018-11-26T18:28:52.496Z,52.75
2018-11-26T18:31:49.034Z,52.65
2018-11-26T18:34:45.143Z,47.88
2018-11-26T18:37:41.803Z,49.45
2018-11-26T18:40:37.924Z,48.28
2018-11-26T18:43:34.100Z,48.58
2018-11-26T18:46:30.373Z,47.98
2018-11-26T18:49:27.291Z,49.13
2018-11-26T18:52:23.608Z,49.73
2018-11-26T18:55:26.703Z,49.70
2018-11-26T18:58:23.266Z,49.93
2018-11-26T19:01:19.240Z,48.95
2018-11-26T19:04:15.074Z,45.80
2018-11-26T19:07:11.729Z,46.20
2018-11-26T19:10:08.091Z,50.12
2018-11-26T19:13:24.493Z,47.85
2018-11-26T19:16:26.177Z,48.10
2018-11-26T19:19:22.642Z,46.85
2018-11-26T19:22:19.299Z,47.95
2018-11-26T19:25:25.341Z,49.65
2018-11-26T19:28:21.632Z,47.03
2018-11-26T19:31:18.388Z,47.03
2018-11-26T19:34:14.960Z,46.40
2018-11-26T19:37:11.587Z,43.83
2018-11-26T19:40:08.483Z,45.52
2018-11-26T19:43:09.110Z,48.80
2018-11-26T19:46:06.024Z,48.83
2018-11-26T19:49:03.046Z,51.18
2018-11-26T19:51:59.527Z,56.00
2018-11-26T19:54:56.046Z,56.45
2018-11-26T19:57:52.399Z,56.70
2018-11-26T20:00:48.893Z,59.20
2018-11-26T20:03:48.571Z,57.25
2018-11-26T20:06:45.070Z,56.77
2018-11-26T20:09:41.479Z,59.30
2018-11-26T20:12:37.370Z,58.48
2018-11-26T20:15:33.797Z,60.73
2018-11-26T20:18:32.309Z,61.37
2018-11-26T20:21:28.444Z,64.05
2018-11-26T20:24:24.762Z,66.25
2018-11-26T20:27:21.160Z,64.67
2018-11-26T20:30:21.478Z,68.35
2018-11-26T20:33:17.994Z,71.77
2018-11-26T20:36:17.099Z,70.55
2018-11-26T20:39:15.298Z,70.83
2018-11-26T20:42:13.415Z,70.67
2018-11-26T20:45:13.315Z,79.50
2018-11-26T20:48:12.884Z,81.28
2018-11-26T20:51:09.323Z,90.10
2018-11-26T20:54:05.748Z,89.05
2018-11-26T20:57:02.580Z,92.45
2018-11-26T21:00:01.510Z,97.85
2018-11-26T21:03:03.531Z,101.72
2018-11-26T21:06:01.498Z,103.02
2018-11-26T21:08:57.625Z,108.55
2018-11-26T21:11:54.193Z,106.63
2018-11-26T21:14:51.031Z,106.85
2018-11-26T21:17:48.164Z,105.95
2018-11-26T21:20:51.799Z,104.40
2018-11-26T21:23:48.204Z,104.12
2018-11-26T21:26:44.239Z,101.18
2018-11-26T21:29:40.683Z,102.10
2018-11-26T21:32:39.810Z,100.60
2018-11-26T21:35:36.581Z,100.42
2018-11-26T21:38:32.991Z,100.70
2018-11-26T21:41:29.157Z,99.52
2018-11-26T21:44:25.013Z,99.50
2018-11-26T21:47:21.430Z,98.62
2018-11-26T21:50:18.714Z,100.40
2018-11-26T21:53:15.799Z,101.47
2018-11-26T21:56:16.091Z,101.55
2018-11-26T21:59:12.438Z,103.85
2018-11-26T22:02:09.173Z,103.17
2018-11-26T22:05:06.231Z,102.00
2018-11-26T22:08:02.640Z,103.30
2018-11-26T22:10:58.928Z,104.23
2018-11-26T22:13:55.272Z,103.72
2018-11-26T22:16:51.648Z,104.50
2018-11-26T22:19:48.282Z,104.35
2018-11-26T22:22:44.498Z,106.65
2018-11-26T22:25:40.949Z,108.67
2018-11-26T22:28:37.083Z,110.30
2018-11-26T22:31:33.515Z,113.25
2018-11-26T22:34:29.514Z,114.03
2018-11-26T22:37:26.900Z,114.47
2018-11-26T22:40:24.479Z,113.15
2018-11-26T22:43:21.122Z,113.88
2018-11-26T22:46:17.907Z,113.10
2018-11-26T22:49:13.773Z,116.20
2018-11-26T22:52:10.215Z,114.80
2018-11-26T22:55:06.858Z,118.37
2018-11-26T22:58:02.769Z,112.55
2018-11-26T23:01:07.162Z,103.97
2018-11-26T23:04:06.181Z,101.85
2018-11-26T23:07:03.150Z,85.77
2018-11-26T23:10:02.198Z,87.97
2018-11-26T23:12:59.046Z,85.40
2018-11-26T23:15:58.697Z,81.63
2018-11-26T23:18:54.910Z,78.37
2018-11-26T23:21:56.352Z,77.45
2018-11-26T23:24:52.803Z,73.35
2018-11-26T23:27:49.217Z,75.03
2018-11-26T23:30:45.557Z,77.37
2018-11-26T23:33:41.498Z,76.42
2018-11-26T23:36:37.873Z,80.12
2018-11-26T23:39:34.182Z,68.45
2018-11-26T23:42:30.635Z,65.42
2018-11-26T23:45:30.438Z,64.05
2018-11-26T23:48:24.295Z,59.33
2018-11-26T23:51:20.692Z,56.90
2018-11-26T23:54:16.972Z,56.30
2018-11-26T23:57:13.325Z,54.33
